Time;durP1;ratioP1;P1;durP2;ratioP2;P2;SDS_P1;SDS_P2;PMS_P1;PMS_P2;Temp;Humidity;BMP_temperature;BMP_pressure;BME280_temperature;BME280_humidity;BME280_pressure;Samples;Min_cycle;Max_cycle;Signal;HPM_P1;HPM_P2
2021/04/30 07:33:23;;;;;;;7.33;6.60;;;26.20;50.10;;;;;;4935006;29;20502;-87
2021/04/30 07:52:52;;;;;;;6.03;5.43;;;26.30;50.20;;;;;;4915659;29;20562;-87
2021/04/30 07:55:19;;;;;;;6.53;5.10;;;26.10;50.20;;;;;;4883211;29;20455;-88
2021/04/30 07:57:45;;;;;;;8.70;5.00;;;26.30;50.40;;;;;;4900049;29;20452;-87
2021/04/30 08:00:13;;;;;;;11.80;5.67;;;26.30;50.40;;;;;;4900649;29;20491;-89
2021/04/30 08:02:39;;;;;;;8.33;4.93;;;26.30;50.30;;;;;;4899278;29;20448;-87
2021/04/30 08:05:07;;;;;;;8.17;6.50;;;26.30;50.00;;;;;;4899962;29;20475;-91
2021/04/30 08:07:34;;;;;;;14.13;6.07;;;26.30;50.40;;;;;;4900370;29;20453;-91
2021/04/30 08:10:01;;;;;;;9.23;5.20;;;26.40;50.60;;;;;;4900161;29;20544;-89
2021/04/30 08:15:26;;;;;;;7.97;5.03;;;26.40;50.50;;;;;;4805819;29;20497;-92
2021/04/30 08:17:53;;;;;;;5.13;4.63;;;26.40;50.60;;;;;;4892627;29;20453;-90
2021/04/30 08:20:19;;;;;;;5.97;5.37;;;26.40;50.50;;;;;;4899426;29;20589;-86
2021/04/30 08:22:45;;;;;;;5.87;5.27;;;26.60;50.70;;;;;;4899698;29;20464;-88
2021/04/30 08:31:22;;;;;;;5.40;4.67;;;26.50;50.70;;;;;;4860602;29;20414;-88
2021/04/30 08:33:49;;;;;;;7.43;6.10;;;26.40;50.80;;;;;;4860564;29;20452;-89
2021/04/30 08:39:31;;;;;;;7.90;5.47;;;26.40;51.00;;;;;;4866501;29;20475;-94
2021/04/30 08:42:00;;;;;;;11.40;5.43;;;26.40;51.10;;;;;;4860284;29;20512;-88
2021/04/30 08:44:27;;;;;;;6.57;5.30;;;26.40;50.70;;;;;;4859724;29;20452;-89
2021/04/30 08:46:58;;;;;;;7.43;5.43;;;26.50;51.00;;;;;;4859715;29;20482;-86
2021/04/30 08:49:24;;;;;;;6.20;5.60;;;26.50;51.30;;;;;;4844195;29;20512;-85
2021/04/30 08:51:51;;;;;;;7.57;6.00;;;26.50;51.20;;;;;;4859777;29;20564;-84
2021/04/30 08:54:17;;;;;;;6.90;6.30;;;26.50;51.40;;;;;;4873249;29;20479;-84
2021/04/30 08:56:46;;;;;;;5.60;5.10;;;26.60;51.20;;;;;;4878226;29;20484;-88
2021/04/30 08:59:14;;;;;;;8.40;6.50;;;26.60;51.20;;;;;;4878241;29;20458;-88
2021/04/30 09:01:40;;;;;;;5.83;5.23;;;26.60;51.20;;;;;;4877190;29;20446;-89
2021/04/30 09:04:07;;;;;;;11.40;6.00;;;26.60;51.10;;;;;;4877772;29;20826;-88
2021/04/30 09:06:35;;;;;;;7.60;6.00;;;26.60;51.10;;;;;;4877754;29;20446;-84
2021/04/30 09:09:08;;;;;;;6.67;5.43;;;26.60;51.10;;;;;;4877709;29;20482;-88
2021/04/30 09:11:36;;;;;;;6.93;5.80;;;26.70;51.00;;;;;;4877849;29;20994;-86
2021/04/30 09:14:29;;;;;;;6.03;5.43;;;26.60;51.00;;;;;;4877705;29;20515;-91
2021/04/30 09:17:05;;;;;;;6.23;5.33;;;26.60;51.00;;;;;;4877851;29;20800;-90
2021/04/30 09:19:33;;;;;;;5.57;5.07;;;26.60;51.10;;;;;;4877469;29;20989;-88
2021/04/30 09:22:01;;;;;;;6.60;5.90;;;26.80;51.20;;;;;;4877495;29;20458;-89
2021/04/30 09:24:28;;;;;;;5.23;4.83;;;26.60;51.00;;;;;;4877485;29;20446;-87
2021/04/30 09:26:55;;;;;;;6.17;5.63;;;26.60;51.00;;;;;;4877584;29;20446;-88
2021/04/30 09:29:23;;;;;;;6.90;6.30;;;26.60;51.00;;;;;;4877641;29;20464;-85
2021/04/30 09:31:50;;;;;;;7.50;5.77;;;26.60;51.00;;;;;;4893277;29;20453;-86
2021/04/30 09:34:24;;;;;;;11.00;5.50;;;26.60;51.00;;;;;;4898893;29;20517;-86
2021/04/30 09:37:11;;;;;;;5.27;4.70;;;26.60;51.00;;;;;;4898187;29;21000;-86
2021/04/30 09:39:55;;;;;;;8.60;6.30;;;26.80;51.00;;;;;;4899294;29;20477;-85
2021/04/30 09:42:24;;;;;;;5.80;5.30;;;26.60;50.90;;;;;;4898476;29;20441;-91
2021/04/30 09:44:53;;;;;;;6.17;5.57;;;26.60;51.00;;;;;;4898444;29;20449;-86
2021/04/30 09:47:22;;;;;;;5.57;4.97;;;26.60;51.00;;;;;;4898186;29;20867;-88
2021/04/30 09:49:50;;;;;;;6.20;5.60;;;26.70;51.00;;;;;;4898512;29;20456;-93
2021/04/30 09:52:17;;;;;;;7.40;5.43;;;26.60;51.10;;;;;;4898648;29;20532;-89
2021/04/30 09:54:44;;;;;;;7.83;5.93;;;26.50;51.00;;;;;;4913451;29;20489;-89
2021/04/30 09:57:17;;;;;;;8.77;5.33;;;26.50;51.10;;;;;;4920895;29;20452;-89
2021/04/30 09:59:45;;;;;;;6.60;5.10;;;26.60;51.00;;;;;;4917477;29;20471;-91
2021/04/30 10:02:16;;;;;;;5.93;5.33;;;26.60;50.90;;;;;;4917251;29;20459;-88
2021/04/30 10:04:44;;;;;;;5.97;5.37;;;26.60;50.90;;;;;;4917760;29;20533;-90
2021/04/30 10:07:12;;;;;;;6.93;6.27;;;26.60;50.90;;;;;;4917061;29;20520;-89
2021/04/30 10:09:40;;;;;;;7.30;6.60;;;26.60;50.90;;;;;;4916871;29;21011;-88
2021/04/30 10:12:21;;;;;;;9.97;6.10;;;26.50;50.80;;;;;;4917184;29;20448;-92
2021/04/30 10:14:48;;;;;;;6.90;6.20;;;26.50;50.60;;;;;;4921119;29;20527;-90
2021/04/30 10:17:15;;;;;;;7.80;6.07;;;26.50;50.10;;;;;;4920829;29;20531;-87
2021/04/30 10:19:43;;;;;;;8.30;6.60;;;26.40;49.80;;;;;;4920526;29;20491;-87
2021/04/30 10:22:16;;;;;;;9.10;5.60;;;26.50;50.10;;;;;;4920510;29;20491;-87
2021/04/30 10:24:47;;;;;;;6.93;5.80;;;26.70;50.50;;;;;;4920263;29;20447;-82
2021/04/30 10:27:17;;;;;;;7.10;6.27;;;26.50;50.50;;;;;;4920501;29;20444;-86
2021/04/30 10:46:23;;;;;;;6.27;5.67;;;26.50;50.40;;;;;;4899116;29;21054;-85
2021/04/30 10:49:19;;;;;;;8.50;5.40;;;26.50;50.10;;;;;;4902008;29;20516;-85
2021/04/30 10:52:16;;;;;;;8.50;6.50;;;26.50;50.20;;;;;;4901336;29;20449;-90
2021/04/30 10:54:44;;;;;;;5.90;5.40;;;26.50;50.20;;;;;;4901369;29;20453;-91
2021/04/30 10:57:12;;;;;;;5.70;5.20;;;26.40;50.40;;;;;;4901339;29;20446;-91
2021/04/30 10:59:50;;;;;;;8.17;5.50;;;26.40;50.30;;;;;;4900741;29;20478;-90
2021/04/30 11:02:20;;;;;;;6.23;5.60;;;26.40;50.20;;;;;;4901166;29;20921;-88
2021/04/30 11:05:10;;;;;;;6.90;6.23;;;26.40;50.30;;;;;;4900884;29;20456;-89
2021/04/30 11:07:39;;;;;;;5.37;4.83;;;26.50;50.40;;;;;;4900739;29;21019;-91
2021/04/30 11:10:39;;;;;;;5.50;5.00;;;26.50;50.40;;;;;;4901297;29;20557;-91
